createdAt,value
2023-09-27T00:00:45.282Z,1007.34
2023-09-27T00:01:45.302Z,1007.31
2023-09-27T00:02:45.401Z,1007.27
2023-09-27T00:03:45.246Z,1007.25
2023-09-27T00:04:45.289Z,1007.20
2023-09-27T00:05:45.308Z,1007.25
2023-09-27T00:06:45.186Z,1007.22
2023-09-27T00:07:45.270Z,1007.26
2023-09-27T00:08:45.183Z,1007.23
2023-09-27T00:09:45.190Z,1007.22
2023-09-27T00:10:45.144Z,1007.30
2023-09-27T00:11:45.121Z,1007.26
2023-09-27T00:12:45.113Z,1007.27
2023-09-27T00:13:45.107Z,1007.28
2023-09-27T00:14:45.099Z,1007.36
2023-09-27T00:15:45.107Z,1007.35
2023-09-27T00:16:45.135Z,1007.36
2023-09-27T00:17:45.151Z,1007.32
2023-09-27T00:18:45.096Z,1007.39
2023-09-27T00:19:45.022Z,1007.39
2023-09-27T00:20:45.017Z,1007.27
2023-09-27T00:21:45.025Z,1007.30
2023-09-27T00:22:44.991Z,1007.28
2023-09-27T00:23:44.978Z,1007.22
2023-09-27T00:24:44.959Z,1007.26
2023-09-27T00:25:44.992Z,1007.19
2023-09-27T00:26:44.940Z,1007.16
2023-09-27T00:27:44.942Z,1007.20
2023-09-27T00:28:44.921Z,1007.12
2023-09-27T00:29:44.908Z,1007.13
2023-09-27T00:30:44.908Z,1007.12
2023-09-27T00:31:45.004Z,1007.11
2023-09-27T00:32:44.938Z,1007.15
2023-09-27T00:33:44.845Z,1007.21
2023-09-27T00:34:44.843Z,1007.21
2023-09-27T00:35:44.831Z,1007.26
2023-09-27T00:36:44.806Z,1007.23
2023-09-27T00:37:44.812Z,1007.23
2023-09-27T00:38:44.793Z,1007.28
2023-09-27T00:39:44.770Z,1007.29
2023-09-27T00:40:44.768Z,1007.31
2023-09-27T00:41:44.786Z,1007.32
2023-09-27T00:42:44.742Z,1007.33
2023-09-27T00:43:44.738Z,1007.30
2023-09-27T00:44:44.706Z,1007.32
2023-09-27T00:45:44.695Z,1007.29
2023-09-27T00:46:44.699Z,1007.30
2023-09-27T00:47:44.694Z,1007.34
2023-09-27T00:48:44.674Z,1007.33
2023-09-27T00:49:44.657Z,1007.33
2023-09-27T00:50:44.643Z,1007.39
2023-09-27T00:51:44.646Z,1007.38
2023-09-27T00:52:44.706Z,1007.43
2023-09-27T00:53:44.649Z,1007.44
2023-09-27T00:54:44.604Z,1007.47
2023-09-27T00:55:44.580Z,1007.41
2023-09-27T00:56:44.569Z,1007.47
2023-09-27T00:57:44.550Z,1007.44
2023-09-27T00:58:44.552Z,1007.44
2023-09-27T00:59:44.562Z,1007.49
2023-09-27T01:00:44.508Z,1007.49
2023-09-27T01:01:44.549Z,1007.49
2023-09-27T01:02:44.566Z,1007.56
2023-09-27T01:03:44.493Z,1007.54
2023-09-27T01:04:44.460Z,1007.59
2023-09-27T01:05:44.533Z,1007.61
2023-09-27T01:06:44.487Z,1007.64
2023-09-27T01:07:44.465Z,1007.62
2023-09-27T01:08:44.411Z,1007.60
2023-09-27T01:09:44.414Z,1007.66
2023-09-27T01:10:44.394Z,1007.70
2023-09-27T01:11:44.380Z,1007.71
2023-09-27T01:12:44.440Z,1007.71
2023-09-27T01:13:44.375Z,1007.73
2023-09-27T01:14:44.344Z,1007.71
2023-09-27T01:15:44.318Z,1007.84
2023-09-27T01:16:44.308Z,1007.71
2023-09-27T01:17:44.384Z,1007.72
2023-09-27T01:18:44.291Z,1007.62
2023-09-27T01:19:44.285Z,1007.68
2023-09-27T01:20:44.277Z,1007.63
2023-09-27T01:21:44.239Z,1007.65
2023-09-27T01:22:44.232Z,1007.64
2023-09-27T01:23:44.230Z,1007.81
2023-09-27T01:24:44.212Z,1007.80
2023-09-27T01:25:44.222Z,1007.79
2023-09-27T01:26:44.195Z,1007.88
2023-09-27T01:27:44.170Z,1007.85
2023-09-27T01:28:44.173Z,1007.87
2023-09-27T01:29:44.152Z,1007.84
2023-09-27T01:30:44.146Z,1007.85
2023-09-27T01:31:44.148Z,1007.80
2023-09-27T01:32:44.191Z,1007.83
2023-09-27T01:33:44.121Z,1007.85
2023-09-27T01:34:44.090Z,1007.83
2023-09-27T01:35:44.087Z,1007.86
2023-09-27T01:36:44.086Z,1007.89
2023-09-27T01:37:44.127Z,1007.95
2023-09-27T01:38:44.026Z,1007.97
2023-09-27T01:39:44.023Z,1007.95
2023-09-27T01:40:44.010Z,1007.89
2023-09-27T01:41:44.002Z,1007.91
2023-09-27T01:42:43.989Z,1007.87
2023-09-27T01:43:43.985Z,1007.79
2023-09-27T01:44:43.966Z,1007.78
2023-09-27T01:45:44.142Z,1007.78
2023-09-27T01:46:43.928Z,1007.72
2023-09-27T01:47:44.011Z,1007.69
2023-09-27T01:48:43.917Z,1007.70
2023-09-27T01:49:43.918Z,1007.73
2023-09-27T01:50:43.905Z,1007.80
2023-09-27T01:51:43.952Z,1007.80
2023-09-27T01:52:43.856Z,1007.76
2023-09-27T01:53:43.849Z,1007.87
2023-09-27T01:54:43.829Z,1007.90
2023-09-27T01:55:43.822Z,1007.90
2023-09-27T01:56:43.827Z,1007.92
2023-09-27T01:57:43.824Z,1007.90
2023-09-27T01:58:43.793Z,1007.85
2023-09-27T01:59:43.760Z,1007.84
2023-09-27T02:00:43.763Z,1007.91
2023-09-27T02:01:43.785Z,1007.99
2023-09-27T02:02:43.969Z,1007.98
2023-09-27T02:03:43.846Z,1008.00
2023-09-27T02:04:43.730Z,1007.99
2023-09-27T02:05:43.753Z,1007.99
2023-09-27T02:06:43.683Z,1007.95
2023-09-27T02:07:43.673Z,1007.91
2023-09-27T02:08:43.696Z,1007.88
2023-09-27T02:09:43.660Z,1007.86
2023-09-27T02:10:43.655Z,1007.92
2023-09-27T02:11:43.629Z,1007.92
2023-09-27T02:12:43.637Z,1007.94
2023-09-27T02:13:43.624Z,1007.95
2023-09-27T02:14:43.616Z,1007.96
2023-09-27T02:15:43.589Z,1007.92
2023-09-27T02:16:43.607Z,1007.88
2023-09-27T02:17:43.570Z,1007.91
2023-09-27T02:18:43.566Z,1007.93
2023-09-27T02:19:43.539Z,1007.94
2023-09-27T02:20:43.508Z,1007.94
2023-09-27T02:21:43.488Z,1007.90
2023-09-27T02:22:43.540Z,1007.93
2023-09-27T02:23:43.465Z,1007.92
2023-09-27T02:24:43.456Z,1007.90
2023-09-27T02:25:43.438Z,1007.86
2023-09-27T02:26:43.432Z,1007.92
2023-09-27T02:27:43.435Z,1007.88
2023-09-27T02:28:43.417Z,1007.90
2023-09-27T02:29:43.403Z,1007.90
2023-09-27T02:30:43.381Z,1007.93
2023-09-27T02:31:43.386Z,1007.95
2023-09-27T02:32:43.531Z,1008.00
2023-09-27T02:33:43.365Z,1008.01
2023-09-27T02:34:43.358Z,1008.01
2023-09-27T02:35:43.317Z,1007.96
2023-09-27T02:36:43.323Z,1007.91
2023-09-27T02:37:43.291Z,1007.84
2023-09-27T02:38:43.321Z,1007.83
2023-09-27T02:39:43.281Z,1007.89
2023-09-27T02:40:43.548Z,1007.90
2023-09-27T02:41:43.243Z,1007.89
2023-09-27T02:42:43.237Z,1007.93
2023-09-27T02:43:43.223Z,1007.86
2023-09-27T02:44:43.238Z,1007.86
2023-09-27T02:45:43.273Z,1007.86
2023-09-27T02:46:43.204Z,1007.77
2023-09-27T02:47:43.244Z,1007.84
2023-09-27T02:48:43.224Z,1007.79
2023-09-27T02:49:43.145Z,1007.80
2023-09-27T02:50:43.122Z,1007.81
2023-09-27T02:51:43.109Z,1007.79
2023-09-27T02:52:43.110Z,1007.71
2023-09-27T02:53:43.093Z,1007.73
2023-09-27T02:54:43.067Z,1007.67
2023-09-27T02:55:43.065Z,1007.74
2023-09-27T02:56:43.065Z,1007.66
2023-09-27T02:57:43.085Z,1007.58
2023-09-27T02:58:43.026Z,1007.58
2023-09-27T02:59:43.015Z,1007.61
2023-09-27T03:00:43.002Z,1007.54
2023-09-27T03:01:43.079Z,1007.49
2023-09-27T03:02:43.247Z,1007.49
2023-09-27T03:03:43.056Z,1007.43
2023-09-27T03:04:42.951Z,1007.44
2023-09-27T03:05:42.940Z,1007.42
2023-09-27T03:06:42.977Z,1007.43
2023-09-27T03:07:42.911Z,1007.38
2023-09-27T03:08:42.897Z,1007.41
2023-09-27T03:09:42.889Z,1007.43
2023-09-27T03:10:42.875Z,1007.41
2023-09-27T03:11:42.861Z,1007.39
2023-09-27T03:12:42.860Z,1007.39
2023-09-27T03:13:42.838Z,1007.36
2023-09-27T03:14:42.838Z,1007.37
2023-09-27T03:15:42.936Z,1007.35
2023-09-27T03:16:42.885Z,1007.36
2023-09-27T03:17:42.849Z,1007.30
2023-09-27T03:18:42.846Z,1007.33
2023-09-27T03:19:42.785Z,1007.32
2023-09-27T03:20:42.765Z,1007.35
2023-09-27T03:21:42.781Z,1007.39
2023-09-27T03:22:43.483Z,1007.42
2023-09-27T03:23:42.727Z,1007.39
2023-09-27T03:24:42.699Z,1007.38
2023-09-27T03:25:42.682Z,1007.40
2023-09-27T03:26:42.672Z,1007.33
2023-09-27T03:27:42.663Z,1007.44
2023-09-27T03:28:42.653Z,1007.39
2023-09-27T03:29:42.635Z,1007.38
2023-09-27T03:32:04.471Z,1007.30
2023-09-27T03:33:09.673Z,1007.37
2023-09-27T03:34:03.072Z,1007.38
2023-09-27T03:35:03.127Z,1007.37
2023-09-27T03:36:03.055Z,1007.34
2023-09-27T03:37:03.013Z,1007.43
2023-09-27T03:38:03.318Z,1007.46
2023-09-27T03:39:04.240Z,1007.48
2023-09-27T03:40:03.002Z,1007.41
2023-09-27T03:41:03.006Z,1007.54
2023-09-27T03:42:02.956Z,1007.52
2023-09-27T03:43:02.972Z,1007.50
2023-09-27T03:44:03.073Z,1007.49
2023-09-27T03:45:02.936Z,1007.49
2023-09-27T03:46:02.899Z,1007.40
2023-09-27T03:47:03.028Z,1007.49
2023-09-27T03:48:02.918Z,1007.43
2023-09-27T03:49:02.898Z,1007.42
2023-09-27T03:50:02.880Z,1007.47
2023-09-27T03:51:02.880Z,1007.42
2023-09-27T03:52:02.869Z,1007.43
2023-09-27T03:53:02.842Z,1007.42
2023-09-27T03:54:02.824Z,1007.41
2023-09-27T03:55:02.819Z,1007.39
2023-09-27T03:56:02.822Z,1007.36
2023-09-27T03:57:02.762Z,1007.33
2023-09-27T03:58:02.773Z,1007.30
2023-09-27T03:59:02.798Z,1007.23
2023-09-27T04:00:58.669Z,1007.21
2023-09-27T04:02:05.881Z,1007.24
2023-09-27T04:03:06.663Z,1007.28
2023-09-27T04:03:58.691Z,1007.23
2023-09-27T04:04:58.656Z,1007.26
2023-09-27T04:05:58.596Z,1007.34
2023-09-27T04:06:58.580Z,1007.29
2023-09-27T04:07:59.854Z,1007.35
2023-09-27T04:08:58.520Z,1007.35
2023-09-27T04:09:58.505Z,1007.29
2023-09-27T04:10:58.523Z,1007.35
2023-09-27T04:11:58.499Z,1007.37
2023-09-27T04:12:58.529Z,1007.31
2023-09-27T04:13:58.525Z,1007.39
2023-09-27T04:14:58.488Z,1007.29
2023-09-27T04:15:58.493Z,1007.34
2023-09-27T04:16:58.432Z,1007.35
2023-09-27T04:17:59.242Z,1007.33
2023-09-27T04:18:58.434Z,1007.39
2023-09-27T04:19:58.389Z,1007.35
2023-09-27T04:20:58.388Z,1007.39
2023-09-27T04:21:58.522Z,1007.39
2023-09-27T04:22:58.413Z,1007.38
2023-09-27T04:24:05.448Z,1007.44
2023-09-27T04:24:58.338Z,1007.41
2023-09-27T04:25:58.350Z,1007.42
2023-09-27T04:26:58.313Z,1007.44
2023-09-27T04:27:58.275Z,1007.43
2023-09-27T04:28:58.335Z,1007.41
2023-09-27T04:29:58.250Z,1007.43
2023-09-27T04:30:58.277Z,1007.36
2023-09-27T04:31:58.326Z,1007.39
2023-09-27T04:32:58.257Z,1007.40
2023-09-27T04:33:58.246Z,1007.44
2023-09-27T04:34:58.218Z,1007.42
2023-09-27T04:35:58.162Z,1007.35
2023-09-27T04:36:58.152Z,1007.51
2023-09-27T04:37:58.229Z,1007.40
2023-09-27T04:38:58.181Z,1007.52
2023-09-27T04:39:58.112Z,1007.61
2023-09-27T04:40:58.117Z,1007.61
2023-09-27T04:41:58.088Z,1007.58
2023-09-27T04:42:58.077Z,1007.57
2023-09-27T04:43:58.145Z,1007.59
2023-09-27T04:44:58.111Z,1007.63
2023-09-27T04:45:58.102Z,1007.68
2023-09-27T04:46:58.135Z,1007.67
2023-09-27T04:47:58.038Z,1007.70
2023-09-27T04:48:58.027Z,1007.73
2023-09-27T04:49:58.030Z,1007.70
2023-09-27T04:50:57.999Z,1007.75
2023-09-27T04:51:57.982Z,1007.62
2023-09-27T04:52:57.985Z,1007.74
2023-09-27T04:53:57.949Z,1007.70
2023-09-27T04:54:57.932Z,1007.67
2023-09-27T04:55:58.006Z,1007.63
2023-09-27T04:56:57.880Z,1007.68
2023-09-27T04:57:57.873Z,1007.66
2023-09-27T04:58:57.897Z,1007.66
2023-09-27T04:59:57.868Z,1007.72
2023-09-27T05:00:57.885Z,1007.78
2023-09-27T05:01:57.893Z,1007.80
2023-09-27T05:02:57.826Z,1007.78
2023-09-27T05:03:57.842Z,1007.70
2023-09-27T05:04:57.818Z,1007.76
2023-09-27T05:05:57.777Z,1007.74
2023-09-27T05:06:57.794Z,1007.74
2023-09-27T05:08:01.816Z,1007.71
2023-09-27T05:08:57.733Z,1007.71
2023-09-27T05:09:57.717Z,1007.74
2023-09-27T05:10:58.439Z,1007.72
2023-09-27T05:13:25.344Z,1007.70
2023-09-27T05:14:25.362Z,1007.64
2023-09-27T05:15:25.311Z,1007.68
2023-09-27T05:16:25.283Z,1007.70
2023-09-27T05:17:25.350Z,1007.64
2023-09-27T05:18:25.290Z,1007.63
2023-09-27T05:19:25.332Z,1007.63
2023-09-27T05:20:25.251Z,1007.67
2023-09-27T05:21:25.201Z,1007.66
2023-09-27T05:22:25.211Z,1007.70
2023-09-27T05:23:25.239Z,1007.64
2023-09-27T05:24:25.170Z,1007.69
2023-09-27T05:25:25.171Z,1007.68
2023-09-27T05:26:25.206Z,1007.75
2023-09-27T05:27:25.193Z,1007.76
2023-09-27T05:28:25.139Z,1007.75
2023-09-27T05:29:25.257Z,1007.75
2023-09-27T05:30:25.121Z,1007.79
2023-09-27T05:31:25.095Z,1007.77
2023-09-27T05:32:25.140Z,1007.73
2023-09-27T05:33:25.097Z,1007.70
2023-09-27T05:34:25.036Z,1007.67
2023-09-27T05:35:25.148Z,1007.73
2023-09-27T05:36:25.043Z,1007.65
2023-09-27T05:37:25.028Z,1007.71
2023-09-27T05:38:25.017Z,1007.67
2023-09-27T05:39:25.056Z,1007.70
2023-09-27T05:40:24.980Z,1007.63
2023-09-27T05:41:25.051Z,1007.63
2023-09-27T05:42:25.734Z,1007.66
2023-09-27T05:43:25.054Z,1007.67
2023-09-27T05:44:24.942Z,1007.67
2023-09-27T05:45:25.981Z,1007.62
2023-09-27T05:46:24.929Z,1007.66
2023-09-27T05:47:24.925Z,1007.65
2023-09-27T05:48:24.951Z,1007.66
2023-09-27T05:49:24.860Z,1007.65
2023-09-27T05:50:24.923Z,1007.66
2023-09-27T05:51:24.811Z,1007.68
2023-09-27T05:52:24.919Z,1007.65
2023-09-27T05:53:24.845Z,1007.69
2023-09-27T05:54:24.813Z,1007.66
2023-09-27T05:55:24.763Z,1007.66
2023-09-27T05:56:24.776Z,1007.71
2023-09-27T05:57:24.766Z,1007.62
2023-09-27T05:58:24.739Z,1007.70
2023-09-27T05:59:24.793Z,1007.78
2023-09-27T06:00:24.708Z,1007.84
2023-09-27T06:01:24.740Z,1007.85
2023-09-27T06:02:25.463Z,1007.88
2023-09-27T06:03:24.848Z,1007.88
2023-09-27T06:04:24.662Z,1007.89
2023-09-27T06:05:24.715Z,1007.87
2023-09-27T06:06:24.641Z,1007.91
2023-09-27T06:07:24.617Z,1007.90
2023-09-27T06:08:24.642Z,1007.88
2023-09-27T06:09:26.522Z,1007.91
2023-09-27T06:10:25.299Z,1007.88
2023-09-27T06:11:24.609Z,1007.87
2023-09-27T06:12:24.536Z,1007.85
2023-09-27T06:13:24.539Z,1007.86
2023-09-27T06:14:24.609Z,1007.84
2023-09-27T06:15:24.526Z,1007.72
2023-09-27T06:16:24.571Z,1007.78
2023-09-27T06:17:24.614Z,1007.81
2023-09-27T06:18:24.630Z,1007.79
2023-09-27T06:19:24.581Z,1007.78
2023-09-27T06:20:24.698Z,1007.84
2023-09-27T06:21:24.464Z,1007.90
2023-09-27T06:22:25.138Z,1007.87
2023-09-27T06:23:24.434Z,1007.90
2023-09-27T06:24:24.381Z,1007.96
2023-09-27T06:25:24.459Z,1007.93
2023-09-27T06:26:24.393Z,1007.96
2023-09-27T06:27:24.367Z,1007.99
2023-09-27T06:28:24.358Z,1008.02
2023-09-27T06:29:24.382Z,1008.07
2023-09-27T06:30:25.088Z,1008.05
2023-09-27T06:31:24.445Z,1008.05
2023-09-27T06:32:24.421Z,1008.13
2023-09-27T06:33:24.296Z,1008.14
2023-09-27T06:34:24.259Z,1008.07
2023-09-27T06:35:24.371Z,1008.04
2023-09-27T06:36:24.218Z,1008.03
2023-09-27T06:37:24.229Z,1007.96
2023-09-27T06:38:24.205Z,1007.90
2023-09-27T06:39:24.199Z,1007.97
2023-09-27T06:40:24.183Z,1007.91
2023-09-27T06:41:24.191Z,1007.96
2023-09-27T06:42:24.295Z,1007.91
2023-09-27T06:43:24.164Z,1007.92
2023-09-27T06:44:24.144Z,1007.91
2023-09-27T06:45:24.103Z,1007.90
2023-09-27T06:46:25.858Z,1007.98
2023-09-27T06:47:24.160Z,1007.99
2023-09-27T06:48:24.229Z,1008.03
2023-09-27T06:49:24.047Z,1007.99
2023-09-27T06:50:24.109Z,1008.03
2023-09-27T06:51:24.028Z,1007.99
2023-09-27T06:52:24.032Z,1008.03
2023-09-27T06:53:27.484Z,1007.97
2023-09-27T06:54:25.011Z,1007.90
2023-09-27T06:55:23.998Z,1007.88
2023-09-27T06:56:24.018Z,1007.90
2023-09-27T06:57:23.947Z,1007.94
2023-09-27T06:58:23.963Z,1007.95
2023-09-27T06:59:24.060Z,1007.98
2023-09-27T07:00:23.981Z,1008.05
2023-09-27T07:01:23.980Z,1008.06
2023-09-27T07:02:23.920Z,1008.05
2023-09-27T07:03:24.020Z,1008.09
2023-09-27T07:04:23.979Z,1008.06
2023-09-27T07:05:23.841Z,1007.99
2023-09-27T07:06:23.862Z,1008.08
2023-09-27T07:07:23.863Z,1008.12
2023-09-27T07:08:23.903Z,1008.08
2023-09-27T07:09:23.786Z,1008.06
2023-09-27T07:10:23.776Z,1008.11
2023-09-27T07:11:23.933Z,1007.99
2023-09-27T07:12:23.776Z,1007.95
2023-09-27T07:13:23.809Z,1007.88
2023-09-27T07:14:23.752Z,1007.86
2023-09-27T07:15:23.701Z,1007.79
2023-09-27T07:16:23.733Z,1007.79
2023-09-27T07:17:23.788Z,1007.78
2023-09-27T07:18:23.845Z,1007.75
2023-09-27T07:19:23.733Z,1007.73
2023-09-27T07:20:23.656Z,1007.68
2023-09-27T07:21:23.650Z,1007.78
2023-09-27T07:22:23.647Z,1007.71
2023-09-27T07:23:23.650Z,1007.73
2023-09-27T07:24:23.604Z,1007.73
2023-09-27T07:25:23.571Z,1007.76
2023-09-27T07:26:23.637Z,1007.77
2023-09-27T07:27:23.571Z,1007.86
2023-09-27T07:28:23.558Z,1007.80
2023-09-27T07:29:23.620Z,1007.87
2023-09-27T07:30:23.533Z,1007.90
2023-09-27T07:31:23.544Z,1007.90
2023-09-27T07:32:23.520Z,1007.90
2023-09-27T07:33:23.511Z,1007.89
2023-09-27T07:34:23.488Z,1007.90
2023-09-27T07:35:23.484Z,1007.94
2023-09-27T07:36:23.453Z,1007.81
2023-09-27T07:37:23.445Z,1007.78
2023-09-27T07:38:23.498Z,1007.78
2023-09-27T07:39:23.447Z,1007.80
2023-09-27T07:40:23.380Z,1007.83
2023-09-27T07:41:23.418Z,1007.87
2023-09-27T07:42:23.381Z,1007.87
2023-09-27T07:43:23.359Z,1007.82
2023-09-27T07:44:23.394Z,1007.84
2023-09-27T07:45:23.679Z,1007.89
2023-09-27T07:46:23.379Z,1007.86
2023-09-27T07:47:23.346Z,1007.92
2023-09-27T07:48:23.291Z,1007.95
2023-09-27T07:49:23.396Z,1007.90
2023-09-27T07:50:23.304Z,1007.90
2023-09-27T07:51:23.263Z,1007.91
2023-09-27T07:52:23.222Z,1007.90
2023-09-27T07:53:23.288Z,1007.91
2023-09-27T07:54:23.248Z,1007.93
2023-09-27T07:55:23.253Z,1007.88
2023-09-27T07:56:23.248Z,1007.91
2023-09-27T07:57:23.197Z,1007.93
2023-09-27T07:58:23.226Z,1007.94
2023-09-27T07:59:23.217Z,1007.92
2023-09-27T08:00:23.133Z,1007.96
2023-09-27T08:01:23.156Z,1007.92
2023-09-27T08:02:23.183Z,1007.90
2023-09-27T08:03:23.618Z,1007.99
2023-09-27T08:04:23.242Z,1007.92
2023-09-27T08:05:23.197Z,1007.92
2023-09-27T08:06:23.075Z,1007.89
2023-09-27T08:07:23.320Z,1007.80
2023-09-27T08:08:23.034Z,1007.78
2023-09-27T08:09:38.822Z,1007.78
2023-09-27T08:10:24.237Z,1007.73
2023-09-27T08:11:23.049Z,1007.77
2023-09-27T08:12:22.969Z,1007.68
2023-09-27T08:13:22.984Z,1007.66
2023-09-27T08:14:23.136Z,1007.70
2023-09-27T08:15:23.038Z,1007.73
2023-09-27T08:16:22.958Z,1007.67
2023-09-27T08:17:22.977Z,1007.69
2023-09-27T08:18:22.991Z,1007.68
2023-09-27T08:19:22.910Z,1007.76
2023-09-27T08:20:22.926Z,1007.68
2023-09-27T08:21:22.876Z,1007.64
2023-09-27T08:22:22.864Z,1007.64
2023-09-27T08:23:22.961Z,1007.66
2023-09-27T08:24:22.865Z,1007.67
2023-09-27T08:25:22.792Z,1007.63
2023-09-27T08:26:22.975Z,1007.60
2023-09-27T08:27:22.790Z,1007.61
2023-09-27T08:28:22.790Z,1007.59
2023-09-27T08:29:22.918Z,1007.55
2023-09-27T08:30:22.755Z,1007.53
2023-09-27T08:31:22.812Z,1007.49
2023-09-27T08:32:22.746Z,1007.56
2023-09-27T08:33:22.741Z,1007.54
2023-09-27T08:34:22.808Z,1007.51
2023-09-27T08:35:22.695Z,1007.55
2023-09-27T08:36:22.671Z,1007.56
2023-09-27T08:37:22.630Z,1007.61
2023-09-27T08:38:22.683Z,1007.61
2023-09-27T08:39:22.670Z,1007.54
2023-09-27T08:40:22.633Z,1007.61
2023-09-27T08:41:22.605Z,1007.59
2023-09-27T08:42:22.606Z,1007.59
2023-09-27T08:43:22.587Z,1007.56
2023-09-27T08:44:22.603Z,1007.52
2023-09-27T08:45:22.519Z,1007.60
2023-09-27T08:46:22.536Z,1007.54
2023-09-27T08:47:22.618Z,1007.48
2023-09-27T08:48:22.564Z,1007.51
2023-09-27T08:49:22.522Z,1007.50
2023-09-27T08:50:22.538Z,1007.50
2023-09-27T08:51:22.469Z,1007.51
2023-09-27T08:52:22.427Z,1007.48
2023-09-27T08:53:22.447Z,1007.43
2023-09-27T08:54:23.156Z,1007.53
2023-09-27T08:55:22.414Z,1007.45
2023-09-27T08:56:22.485Z,1007.43
2023-09-27T08:57:22.381Z,1007.43
2023-09-27T08:58:22.394Z,1007.43
2023-09-27T08:59:22.516Z,1007.45
2023-09-27T09:00:22.410Z,1007.41
2023-09-27T09:01:22.378Z,1007.37
2023-09-27T09:02:22.409Z,1007.32
2023-09-27T09:03:22.414Z,1007.31
2023-09-27T09:04:22.346Z,1007.28
2023-09-27T09:05:22.379Z,1007.21
2023-09-27T09:06:22.322Z,1007.18
2023-09-27T09:07:22.256Z,1007.21
2023-09-27T09:08:33.388Z,1007.14
2023-09-27T09:09:23.251Z,1007.19
2023-09-27T09:10:22.249Z,1007.25
2023-09-27T09:11:22.193Z,1007.28
2023-09-27T09:12:22.181Z,1007.28
2023-09-27T09:13:22.191Z,1007.31
2023-09-27T09:14:22.926Z,1007.32
2023-09-27T09:15:22.152Z,1007.27
2023-09-27T09:16:22.193Z,1007.22
2023-09-27T09:17:22.204Z,1007.26
2023-09-27T09:18:22.122Z,1007.25
2023-09-27T09:19:32.839Z,1007.19
2023-09-27T09:20:23.117Z,1007.19
2023-09-27T09:21:22.092Z,1007.11
2023-09-27T09:22:22.049Z,1007.16
2023-09-27T09:23:22.121Z,1007.06
2023-09-27T09:24:22.042Z,1007.07
2023-09-27T09:25:22.030Z,1007.07
2023-09-27T09:26:22.994Z,1007.06
2023-09-27T09:27:21.970Z,1007.02
2023-09-27T09:28:21.954Z,1007.08
2023-09-27T09:29:22.034Z,1007.01
2023-09-27T09:30:21.951Z,1007.09
2023-09-27T09:31:21.971Z,1007.04
2023-09-27T09:32:22.001Z,1007.09
2023-09-27T09:33:21.935Z,1007.02
2023-09-27T09:34:21.901Z,1007.07
2023-09-27T09:35:21.901Z,1007.09
2023-09-27T09:36:21.882Z,1007.11
2023-09-27T09:37:21.852Z,1007.04
2023-09-27T09:38:22.561Z,1007.11
2023-09-27T09:39:21.968Z,1007.14
2023-09-27T09:40:21.841Z,1007.15
2023-09-27T09:41:21.857Z,1007.11
2023-09-27T09:42:21.837Z,1007.17
2023-09-27T09:43:21.782Z,1007.10
2023-09-27T09:44:21.829Z,1007.12
2023-09-27T09:45:21.884Z,1007.16
2023-09-27T09:46:21.774Z,1007.04
2023-09-27T09:47:21.808Z,1007.04
2023-09-27T09:48:21.751Z,1006.96
2023-09-27T09:49:21.681Z,1006.96
2023-09-27T09:50:21.750Z,1006.90
2023-09-27T09:51:21.750Z,1006.94
2023-09-27T09:52:21.669Z,1006.94
2023-09-27T09:53:21.710Z,1006.87
2023-09-27T09:54:21.632Z,1006.87
2023-09-27T09:55:36.980Z,1006.86
2023-09-27T09:56:32.255Z,1006.91
2023-09-27T09:57:35.218Z,1006.98
2023-09-27T09:58:22.630Z,1007.09
2023-09-27T09:59:21.630Z,1007.03
2023-09-27T10:00:21.577Z,1007.04
2023-09-27T10:01:21.551Z,1007.04
2023-09-27T10:02:21.612Z,1006.96
2023-09-27T10:03:21.695Z,1007.04
2023-09-27T10:04:21.516Z,1006.92
2023-09-27T10:05:21.546Z,1006.91
2023-09-27T10:06:32.477Z,1006.90
2023-09-27T10:07:22.472Z,1006.86
2023-09-27T10:08:21.504Z,1006.85
2023-09-27T10:09:21.443Z,1006.79
2023-09-27T10:10:21.460Z,1006.82
2023-09-27T10:11:21.425Z,1006.75
2023-09-27T10:12:21.403Z,1006.82
2023-09-27T10:13:21.383Z,1006.78
2023-09-27T10:14:21.426Z,1006.79
2023-09-27T10:15:21.386Z,1006.73
2023-09-27T10:16:21.337Z,1006.82
2023-09-27T10:17:21.400Z,1006.81
2023-09-27T10:18:21.331Z,1006.83
2023-09-27T10:19:21.337Z,1006.79
2023-09-27T10:20:21.420Z,1006.84
2023-09-27T10:21:21.280Z,1006.77
2023-09-27T10:22:21.234Z,1006.83
2023-09-27T10:23:21.299Z,1006.76
2023-09-27T10:24:21.243Z,1006.75
2023-09-27T10:25:21.195Z,1006.75
2023-09-27T10:26:21.321Z,1006.73
2023-09-27T10:27:21.179Z,1006.77
2023-09-27T10:28:21.188Z,1006.76
2023-09-27T10:29:21.171Z,1006.66
2023-09-27T10:30:21.132Z,1006.66
2023-09-27T10:31:21.146Z,1006.74
2023-09-27T10:32:21.318Z,1006.78
2023-09-27T10:33:21.192Z,1006.73
2023-09-27T10:34:21.092Z,1006.70
2023-09-27T10:35:21.130Z,1006.71
2023-09-27T10:36:21.069Z,1006.67
2023-09-27T10:37:21.050Z,1006.71
2023-09-27T10:38:21.087Z,1006.71
2023-09-27T10:39:21.062Z,1006.72
2023-09-27T10:40:21.215Z,1006.71
2023-09-27T10:41:21.126Z,1006.72
2023-09-27T10:42:21.083Z,1006.62
2023-09-27T10:43:21.928Z,1006.68
2023-09-27T10:44:21.018Z,1006.67
2023-09-27T10:45:20.995Z,1006.63
2023-09-27T10:46:21.008Z,1006.64
2023-09-27T10:47:20.957Z,1006.62
2023-09-27T10:48:20.946Z,1006.66
2023-09-27T10:49:20.959Z,1006.67
2023-09-27T10:50:20.948Z,1006.66
2023-09-27T10:51:20.908Z,1006.68
2023-09-27T10:52:21.024Z,1006.74
2023-09-27T10:53:20.869Z,1006.73
2023-09-27T10:54:20.866Z,1006.73
2023-09-27T10:55:20.861Z,1006.76
2023-09-27T10:56:20.843Z,1006.70
2023-09-27T10:57:20.795Z,1006.69
2023-09-27T10:58:20.863Z,1006.67
2023-09-27T10:59:21.057Z,1006.68
2023-09-27T11:00:20.790Z,1006.63
2023-09-27T11:01:20.829Z,1006.59
2023-09-27T11:02:20.785Z,1006.55
2023-09-27T11:03:20.830Z,1006.60
2023-09-27T11:04:20.736Z,1006.52
2023-09-27T11:05:20.764Z,1006.52
2023-09-27T11:06:20.719Z,1006.49
2023-09-27T11:07:20.694Z,1006.56
2023-09-27T11:08:20.714Z,1006.52
2023-09-27T11:09:20.770Z,1006.55
2023-09-27T11:10:20.662Z,1006.48
2023-09-27T11:11:20.715Z,1006.49
2023-09-27T11:12:20.640Z,1006.43
2023-09-27T11:13:20.613Z,1006.41
2023-09-27T11:14:20.617Z,1006.39
2023-09-27T11:15:20.572Z,1006.33
2023-09-27T11:16:20.545Z,1006.30
2023-09-27T11:17:20.651Z,1006.29
2023-09-27T11:18:20.644Z,1006.29
2023-09-27T11:19:20.551Z,1006.31
2023-09-27T11:20:21.541Z,1006.30
2023-09-27T11:21:20.509Z,1006.32
2023-09-27T11:22:20.478Z,1006.30
2023-09-27T11:23:20.466Z,1006.23
2023-09-27T11:24:20.507Z,1006.27
2023-09-27T11:25:20.489Z,1006.14
2023-09-27T11:26:20.423Z,1006.21
2023-09-27T11:27:20.431Z,1006.21
2023-09-27T11:28:20.405Z,1006.21
2023-09-27T11:29:20.411Z,1006.21
2023-09-27T11:30:20.370Z,1006.18
2023-09-27T11:31:20.416Z,1006.13
2023-09-27T11:32:20.436Z,1006.17
2023-09-27T11:33:20.389Z,1006.10
2023-09-27T11:34:20.343Z,1006.14
2023-09-27T11:35:20.389Z,1006.11
2023-09-27T11:36:20.856Z,1006.08
2023-09-27T11:37:20.315Z,1006.08
2023-09-27T11:38:20.330Z,1006.06
2023-09-27T11:39:20.361Z,1006.03
2023-09-27T11:40:20.298Z,1005.98
2023-09-27T11:41:20.283Z,1006.04
2023-09-27T11:42:20.240Z,1005.96
2023-09-27T11:43:20.198Z,1005.94
2023-09-27T11:44:20.229Z,1005.91
2023-09-27T11:45:20.173Z,1005.96
2023-09-27T11:46:20.186Z,1005.92
2023-09-27T11:47:20.180Z,1005.92
2023-09-27T11:48:20.213Z,1005.96
2023-09-27T11:49:20.131Z,1005.91
2023-09-27T11:50:20.161Z,1005.91
2023-09-27T11:51:20.858Z,1005.83
2023-09-27T11:52:20.110Z,1005.89
2023-09-27T11:53:20.152Z,1005.88
2023-09-27T11:54:20.080Z,1005.85
2023-09-27T11:55:20.135Z,1005.87
2023-09-27T11:56:20.069Z,1005.91
2023-09-27T11:57:20.006Z,1005.91
2023-09-27T11:58:20.026Z,1005.93
2023-09-27T11:59:20.067Z,1005.87
2023-09-27T12:00:19.976Z,1005.83
2023-09-27T12:01:19.989Z,1005.84
2023-09-27T12:02:28.091Z,1005.82
2023-09-27T12:03:21.127Z,1005.77
2023-09-27T12:04:20.167Z,1005.75
2023-09-27T12:05:20.161Z,1005.77
2023-09-27T12:06:19.993Z,1005.78
2023-09-27T12:07:20.107Z,1005.72
2023-09-27T12:08:19.921Z,1005.71
2023-09-27T12:09:19.843Z,1005.74